イエローナイフ の空港の天気 - METARとTAF

イエローナイフ空港 ( CYZF / YZF ) - カナダ ノースウエスト準州イエローナイフ
飛行場実況気象(Metar)
観測時間03/06 06:55 MST (03/06 13:55 UTC)
風向・風速北 2m/s
視程9650m
天気現象弱い雪 もや
少しの雲 雲底高度 210m
全天の8割程度の雲 雲底高度 4880m
気温-15℃
湿度85%
気圧997.1hPa
METARCYZF 061355Z 36003KT 6SM -SN BR FEW007 BKN160 M15/M17 A2938 RMK ST1AC7 ST TR SLP971
過去の天気等 Google飛行場航空写真 Wunderground天気予報

過去48時間のMETAR

飛行場予報(TAF)
発表時間: 3/06 04:43 MST (3/06 11:43 UTC)
予報対象時間: 6日5時 MST ~ 7日5時 MST
風向・風速不定 2m/s
視程10km以上
少しの雲 雲底高度 1830m
全天の8割程度の雲 雲底高度 3660m
全天を覆う雲 雲底高度 7320m
6日5時 MST ~ 6日8時 MST に一時的に
視程1610m
天気現象もや
6日5時 MST から 確率 30% で
視程800m
天気現象氷霧
全天の8割程度の雲 雲底高度 150m
6日8時 MST から
風向・風速北西 4m/s
視程10km以上
少しの雲 雲底高度 610m
全天の8割程度の雲 雲底高度 2440m
6日8時 MST ~ 6日14時 MST に一時的に
視程10km以上
天気現象弱い雪
全天の4割程度の雲 雲底高度 610m
全天の8割程度の雲 雲底高度 1220m
6日14時 MST から
風向・風速北西 6m/s
視程10km以上
少しの雲 雲底高度 610m
全天の8割程度の雲 雲底高度 3660m
6日20時 MST ~ 7日5時 MST に一時的に
全天の8割程度の雲 雲底高度 610m
6日20時 MST ~ 6日22時 MST に徐々に
風向・風速西北西 4m/s
TAF CYZF 061143Z 0612/0712 VRB03KT P6SM FEW060 BKN120 OVC240
TEMPO 0612/0615 1SM BR
PROB30 0612/0615 1/2SM FZFG BKN005
FM061500 32008KT P6SM FEW020 BKN080
TEMPO 0615/0621 6SM -SN SCT020 BKN040
FM062100 32012KT P6SM FEW020 BKN120
TEMPO 0703/0712 BKN020
BECMG 0703/0705 30007KT RMK NXT FCST BY 061800Z